In Rescue
 
Open Full Screen Window  High Contrast Mode
Wind Gusting 00 knots
08
January 22, 2020 3:45 PM PST
Weather Information
Wind Direction
  320 °
Wind Speed
  08 kt (9 mph)
Wind Gust
  00 kt (0 mph)
Altimeter
30.23 in
Visibility
7 SM
Temperature
13° C
55° F
Dewpoint
11° C
52° F
Humidity
88%
1hr Rain Fall
00.00 in.
24hr Rain Fall
00.09 in.
Sky Condition
Few @ 2,400 ft
VFR

METAR KHAF 222345Z AUTO 32008KT 7SM FEW024 13/11 A3023 RMK AO2

FAA Disclaimer: The data displayed is for advisory purposes only and is not to be used for flight planning or operations.